Time;durP1;ratioP1;P1;durP2;ratioP2;P2;SDS_P1;SDS_P2;PMS_P1;PMS_P2;Temp;Humidity;BMP_temperature;BMP_pressure;BME280_temperature;BME280_humidity;BME280_pressure;Samples;Min_cycle;Max_cycle;Signal;HPM_P1;HPM_P2
2022/04/04 00:05:21;;;;;;;0.65;0.60;;;8.90;57.10;;;;;;20892057;28;20028;-80
2022/04/04 00:15:22;;;;;;;1.37;0.53;;;8.90;57.10;;;;;;20875626;28;20127;-80
2022/04/04 00:25:22;;;;;;;0.82;0.57;;;8.80;57.10;;;;;;20892067;28;20334;-79
2022/04/04 00:35:23;;;;;;;0.53;0.40;;;8.80;57.10;;;;;;20890112;28;20033;-80
2022/04/04 00:45:23;;;;;;;0.77;0.55;;;8.80;57.10;;;;;;20889540;28;20334;-79
2022/04/04 00:55:24;;;;;;;0.70;0.50;;;8.80;57.20;;;;;;20901204;28;20041;-79
2022/04/04 01:05:25;;;;;;;2.13;0.63;;;8.80;57.20;;;;;;20874742;28;20048;-79
2022/04/04 01:15:30;;;;;;;2.23;0.60;;;8.80;57.20;;;;;;20905148;28;20459;-80
2022/04/04 01:25:31;;;;;;;0.50;0.45;;;8.80;57.20;;;;;;20888204;28;20345;-80
2022/04/04 01:35:32;;;;;;;0.55;0.45;;;8.80;57.20;;;;;;20870741;28;20037;-80
2022/04/04 01:55:53;;;;;;;1.85;1.00;;;8.80;57.30;;;;;;20889349;28;20037;-80
2022/04/04 02:05:54;;;;;;;1.15;0.57;;;8.80;57.30;;;;;;20869139;28;20044;-80
2022/04/04 02:15:56;;;;;;;3.72;0.80;;;8.80;57.30;;;;;;20907645;28;20048;-80
2022/04/04 02:25:57;;;;;;;1.25;0.60;;;8.80;57.30;;;;;;20975343;23;20416;-77
2022/04/04 02:35:58;;;;;;;0.93;0.60;;;8.80;57.40;;;;;;20573734;28;20061;-77
2022/04/04 02:45:58;;;;;;;1.23;0.70;;;8.80;57.40;;;;;;20589171;28;20039;-78
2022/04/04 03:06:18;;;;;;;1.30;0.57;;;8.80;57.40;;;;;;20640590;28;20129;-77
2022/04/04 03:16:19;;;;;;;1.38;0.85;;;8.70;57.40;;;;;;20668173;28;20065;-74
2022/04/04 03:26:19;;;;;;;1.25;0.70;;;8.70;57.40;;;;;;20684239;28;20065;-77
2022/04/04 03:36:21;;;;;;;5.22;0.80;;;8.70;57.50;;;;;;20667388;28;20045;-74
2022/04/04 03:46:21;;;;;;;1.10;0.60;;;8.70;57.50;;;;;;20649762;28;20477;-77
2022/04/04 03:56:22;;;;;;;1.77;0.70;;;8.70;57.50;;;;;;20667436;28;20061;-79
2022/04/04 04:06:23;;;;;;;1.20;0.57;;;8.80;57.60;;;;;;20653730;28;20370;-78
2022/04/04 04:16:23;;;;;;;2.72;0.85;;;8.70;57.60;;;;;;20668285;28;20353;-77
2022/04/04 04:26:25;;;;;;;1.75;0.88;;;8.80;57.40;;;;;;20685753;28;20121;-77
2022/04/04 04:36:25;;;;;;;3.63;1.25;;;9.00;57.10;;;;;;20650530;28;20281;-77
2022/04/04 04:46:26;;;;;;;1.63;0.95;;;9.30;56.60;;;;;;20665024;28;20053;-77
2022/04/04 04:56:27;;;;;;;3.38;1.38;;;9.60;55.80;;;;;;20649489;28;20026;-77
2022/04/04 05:06:28;;;;;;;1.98;1.35;;;10.00;55.00;;;;;;20631005;28;20074;-80
2022/04/04 05:16:28;;;;;;;1.58;1.08;;;10.20;54.20;;;;;;20552210;28;20035;-79
2022/04/04 05:26:29;;;;;;;2.33;1.23;;;10.20;53.80;;;;;;20550393;28;20042;-79
2022/04/04 05:36:31;;;;;;;2.83;1.58;;;10.10;53.90;;;;;;20584100;28;20378;-78
2022/04/04 05:46:32;;;;;;;2.20;1.42;;;9.80;54.10;;;;;;20551671;28;20045;-78
2022/04/04 05:56:32;;;;;;;2.58;1.83;;;9.70;54.60;;;;;;20564558;28;20085;-78
2022/04/04 06:06:34;;;;;;;2.33;1.60;;;9.50;54.90;;;;;;20564704;28;20112;-77
2022/04/04 06:16:34;;;;;;;2.63;1.52;;;9.40;55.20;;;;;;20565738;28;20286;-78
2022/04/04 06:26:35;;;;;;;3.28;1.98;;;9.30;55.50;;;;;;20595447;28;20121;-75
2022/04/04 06:36:38;;;;;;;5.70;2.45;;;9.20;55.70;;;;;;20578539;28;20035;-75
2022/04/04 06:46:39;;;;;;;3.28;1.42;;;9.10;55.80;;;;;;20576633;28;20489;-76
2022/04/04 06:56:40;;;;;;;2.95;1.30;;;9.10;56.00;;;;;;20575628;28;20096;-78
2022/04/04 07:06:40;;;;;;;2.30;1.38;;;9.00;56.10;;;;;;20595738;28;20038;-76
2022/04/04 07:16:41;;;;;;;2.90;1.38;;;9.00;56.20;;;;;;20683264;28;20034;-74
2022/04/04 07:26:41;;;;;;;2.40;1.20;;;9.00;56.20;;;;;;20631958;28;20116;-75
2022/04/04 07:36:42;;;;;;;2.03;1.17;;;9.00;56.20;;;;;;20665039;28;20057;-75
2022/04/04 07:46:42;;;;;;;1.75;0.88;;;9.00;56.20;;;;;;20664142;28;20038;-75
2022/04/04 07:56:43;;;;;;;2.65;1.20;;;9.00;56.20;;;;;;20647734;28;20038;-75
2022/04/04 08:06:44;;;;;;;2.40;1.30;;;9.00;56.10;;;;;;20647102;28;20121;-74
2022/04/04 08:16:44;;;;;;;2.47;1.25;;;9.00;56.00;;;;;;20662111;28;20034;-81
2022/04/04 08:26:45;;;;;;;2.95;1.10;;;9.00;55.90;;;;;;20633539;28;20393;-79
2022/04/04 08:36:46;;;;;;;6.32;1.70;;;9.00;55.80;;;;;;20666834;28;20035;-79
2022/04/04 08:46:47;;;;;;;2.28;1.10;;;9.00;55.80;;;;;;20663935;28;20164;-78
2022/04/04 08:56:47;;;;;;;1.10;0.90;;;9.00;55.90;;;;;;20659913;28;20499;-79
2022/04/04 09:06:50;;;;;;;2.67;1.15;;;9.00;55.90;;;;;;20659260;28;20046;-79
2022/04/04 09:16:55;;;;;;;2.13;1.33;;;9.10;55.90;;;;;;20684759;28;20432;-79
2022/04/04 09:26:55;;;;;;;2.70;1.35;;;9.00;55.80;;;;;;20667985;28;20037;-79
2022/04/04 09:36:58;;;;;;;2.38;1.63;;;9.00;55.80;;;;;;20658583;28;20113;-79
2022/04/04 09:46:58;;;;;;;2.35;1.20;;;9.00;55.90;;;;;;20667424;28;20050;-78
2022/04/04 09:57:10;;;;;;;1.92;0.77;;;9.00;56.00;;;;;;20739852;28;20034;-78
2022/04/04 10:07:11;;;;;;;1.25;0.82;;;9.00;56.00;;;;;;20722881;28;20099;-80
2022/04/04 10:17:11;;;;;;;1.77;1.00;;;9.00;56.00;;;;;;20756312;28;20030;-76
2022/04/04 10:27:13;;;;;;;2.30;0.75;;;9.20;55.70;;;;;;20755332;28;20037;-78
2022/04/04 10:37:14;;;;;;;4.65;1.35;;;9.30;55.30;;;;;;20753115;28;20119;-78
2022/04/04 10:47:21;;;;;;;4.65;1.80;;;9.60;54.90;;;;;;20753298;28;20065;-76
2022/04/04 10:57:22;;;;;;;3.97;1.65;;;9.80;54.50;;;;;;20733899;28;20041;-76
2022/04/04 11:07:38;;;;;;;1.55;1.02;;;10.00;54.20;;;;;;20750579;28;20042;-75
2022/04/04 11:17:57;;;;;;;2.15;1.20;;;9.90;54.20;;;;;;20753655;28;20034;-76
2022/04/04 11:27:59;;;;;;;2.88;1.50;;;9.80;54.80;;;;;;20750722;28;20041;-79
2022/04/04 11:38:01;;;;;;;2.72;1.45;;;9.60;55.20;;;;;;20752736;28;20056;-77
2022/04/04 11:48:14;;;;;;;8.50;1.60;;;9.50;55.90;;;;;;20713048;28;20038;-78
2022/04/04 11:58:16;;;;;;;3.15;1.48;;;9.40;56.50;;;;;;20745886;28;20392;-73
2022/04/04 12:08:18;;;;;;;1.77;1.30;;;9.30;57.00;;;;;;20746100;28;20045;-74
2022/04/04 12:18:29;;;;;;;2.35;1.25;;;9.20;57.50;;;;;;20743899;28;20122;-74
2022/04/04 12:28:32;;;;;;;1.48;1.10;;;9.10;57.90;;;;;;20711673;28;20211;-74
2022/04/04 12:38:40;;;;;;;2.50;1.52;;;9.10;58.20;;;;;;20743917;28;20444;-75
2022/04/04 12:48:41;;;;;;;2.17;1.30;;;9.00;58.70;;;;;;20709230;28;20491;-72
2022/04/04 12:58:41;;;;;;;2.20;1.25;;;9.00;59.00;;;;;;20724643;28;20038;-73
2022/04/04 13:08:55;;;;;;;3.03;1.10;;;9.00;59.40;;;;;;20740640;28;20068;-72
2022/04/04 13:18:57;;;;;;;5.20;1.55;;;9.00;59.60;;;;;;20708164;28;20049;-73
2022/04/04 13:28:58;;;;;;;1.50;0.95;;;8.90;59.80;;;;;;20741620;28;20033;-75
2022/04/04 13:38:59;;;;;;;2.70;1.20;;;8.90;60.00;;;;;;20742966;28;20050;-74
2022/04/04 13:49:00;;;;;;;2.90;1.13;;;8.90;60.30;;;;;;20743297;28;20030;-74
2022/04/04 13:59:01;;;;;;;1.33;1.00;;;8.90;60.40;;;;;;20742490;28;20033;-74
2022/04/04 14:09:02;;;;;;;1.17;0.95;;;9.00;61.40;;;;;;20742520;28;20064;-74
2022/04/04 14:19:02;;;;;;;1.83;1.05;;;8.90;60.80;;;;;;20695437;28;20050;-73
2022/04/04 14:29:03;;;;;;;4.07;0.90;;;9.00;61.00;;;;;;20643072;28;20485;-74
2022/04/04 14:39:06;;;;;;;0.77;0.73;;;9.00;61.10;;;;;;20641619;28;20316;-74
2022/04/04 14:49:06;;;;;;;1.25;0.80;;;9.00;61.20;;;;;;20688846;28;20081;-75
2022/04/04 14:59:07;;;;;;;1.42;0.70;;;9.20;61.10;;;;;;20653638;28;20058;-75
2022/04/04 15:09:09;;;;;;;2.85;1.13;;;9.40;60.70;;;;;;20654242;28;20089;-76
2022/04/04 15:19:09;;;;;;;2.13;0.60;;;9.70;60.10;;;;;;20708975;28;20053;-74
2022/04/04 15:29:10;;;;;;;0.65;0.65;;;9.80;59.90;;;;;;20747417;28;20073;-73
2022/04/04 15:39:12;;;;;;;2.10;0.85;;;9.70;60.00;;;;;;20709646;28;20029;-76
2022/04/04 15:49:13;;;;;;;1.23;0.60;;;9.60;60.30;;;;;;20688704;28;20069;-75
2022/04/04 15:59:14;;;;;;;0.93;0.50;;;9.40;60.60;;;;;;20697902;28;20066;-75
2022/04/04 16:09:15;;;;;;;0.32;0.32;;;9.40;61.10;;;;;;20646176;28;20393;-75
2022/04/04 16:19:16;;;;;;;4.05;0.52;;;9.30;61.40;;;;;;20628891;28;20046;-78
2022/04/04 16:29:17;;;;;;;0.85;0.63;;;9.20;61.50;;;;;;20660915;28;20403;-79
2022/04/04 16:39:18;;;;;;;0.88;0.52;;;9.10;61.90;;;;;;20659965;28;20113;-76
2022/04/04 16:49:18;;;;;;;0.80;0.35;;;9.10;62.00;;;;;;20658448;28;20042;-78
2022/04/04 16:59:19;;;;;;;2.50;0.43;;;9.10;62.40;;;;;;20659499;28;20042;-75
2022/04/04 17:09:19;;;;;;;0.43;0.43;;;9.00;62.50;;;;;;20658207;28;20481;-74
2022/04/04 17:19:22;;;;;;;0.93;0.65;;;9.10;62.80;;;;;;20657964;28;20077;-73
2022/04/04 17:29:24;;;;;;;3.00;1.20;;;9.00;62.80;;;;;;20622310;28;20448;-74
2022/04/04 17:39:24;;;;;;;2.90;0.93;;;9.00;63.10;;;;;;20638270;28;20077;-73
2022/04/04 17:49:25;;;;;;;1.10;0.70;;;9.00;63.30;;;;;;20650634;28;20541;-75
2022/04/04 17:59:26;;;;;;;1.75;0.73;;;9.00;63.40;;;;;;20690723;28;20292;-73
2022/04/04 18:09:28;;;;;;;0.85;0.60;;;9.00;63.50;;;;;;20671562;28;20303;-73
2022/04/04 18:19:29;;;;;;;0.80;0.52;;;9.00;63.70;;;;;;20687689;28;20050;-73
2022/04/04 18:29:29;;;;;;;1.05;0.80;;;9.00;63.80;;;;;;20671757;28;20061;-69
2022/04/04 18:39:31;;;;;;;1.77;1.10;;;9.00;63.80;;;;;;20669357;28;20417;-68
2022/04/04 18:49:32;;;;;;;1.95;1.08;;;9.00;63.90;;;;;;20652726;28;20493;-70
2022/04/04 18:59:33;;;;;;;0.80;0.75;;;9.00;64.10;;;;;;20665751;28;20432;-70
2022/04/04 19:09:33;;;;;;;3.95;0.98;;;9.00;64.20;;;;;;20633262;28;20133;-70
2022/04/04 19:19:34;;;;;;;2.33;1.25;;;9.00;64.30;;;;;;20651069;28;20388;-71
2022/04/04 19:29:35;;;;;;;1.65;0.98;;;9.00;64.40;;;;;;20650198;28;20049;-69
2022/04/04 19:39:38;;;;;;;1.10;0.68;;;9.00;64.60;;;;;;20649700;28;20026;-69
2022/04/04 19:49:38;;;;;;;2.10;1.10;;;9.00;64.60;;;;;;20650469;28;20500;-68
2022/04/04 19:59:40;;;;;;;1.92;1.20;;;9.00;64.70;;;;;;20647909;28;20125;-71
2022/04/04 20:09:45;;;;;;;1.80;1.20;;;9.00;64.90;;;;;;20647580;28;20405;-71
2022/04/04 20:19:46;;;;;;;1.50;1.05;;;9.00;65.10;;;;;;20647355;28;20043;-69
2022/04/04 20:29:46;;;;;;;2.33;1.10;;;9.00;65.20;;;;;;20645481;28;20044;-69
2022/04/04 20:39:49;;;;;;;1.10;0.80;;;9.00;65.30;;;;;;20629059;28;20043;-70
2022/04/04 20:49:52;;;;;;;1.25;1.05;;;9.00;65.50;;;;;;20645224;28;20300;-70
2022/04/04 20:59:52;;;;;;;2.00;1.35;;;9.00;65.60;;;;;;20644318;28;20083;-70
2022/04/04 21:09:53;;;;;;;1.95;1.17;;;9.00;65.90;;;;;;20643434;28;20556;-70
2022/04/04 21:20:01;;;;;;;1.83;1.17;;;9.00;66.00;;;;;;20642524;28;20042;-70
2022/04/04 21:30:01;;;;;;;;;;;9.00;66.20;;;;;;20644530;28;20046;-68
2022/04/04 21:40:03;;;;;;;1.88;1.27;;;9.00;66.30;;;;;;20674411;28;20439;-69
2022/04/04 21:50:05;;;;;;;1.30;1.00;;;9.00;66.60;;;;;;20641878;28;20046;-69
2022/04/04 22:00:25;;;;;;;2.88;1.00;;;9.00;66.70;;;;;;20641286;28;20046;-68
2022/04/04 22:10:25;;;;;;;1.70;1.08;;;9.00;66.80;;;;;;20644118;28;20121;-70
2022/04/04 22:20:26;;;;;;;2.33;0.98;;;9.00;66.90;;;;;;20640692;28;20129;-69
2022/04/04 22:30:26;;;;;;;0.82;0.60;;;9.00;67.00;;;;;;20641885;28;20673;-70
2022/04/04 22:40:27;;;;;;;1.23;0.90;;;9.00;67.20;;;;;;20654343;28;20085;-69
2022/04/04 22:50:28;;;;;;;0.90;0.60;;;9.00;67.20;;;;;;20653482;28;20129;-70
2022/04/04 23:00:29;;;;;;;3.08;0.70;;;9.00;67.30;;;;;;20652815;28;20096;-69
2022/04/04 23:10:29;;;;;;;0.47;0.40;;;9.00;67.40;;;;;;20652044;28;20030;-69
2022/04/04 23:20:30;;;;;;;1.40;0.60;;;9.00;67.50;;;;;;20635601;28;20401;-69
2022/04/04 23:30:30;;;;;;;0.75;0.47;;;9.00;67.60;;;;;;20650539;28;20042;-71
2022/04/04 23:40:31;;;;;;;1.20;0.60;;;9.00;67.70;;;;;;20649489;28;20034;-71
2022/04/04 23:50:32;;;;;;;0.73;0.43;;;9.00;67.80;;;;;;20633365;28;20305;-69
